createdAt,value
2022-11-16T00:00:32.125Z,99110.54
2022-11-16T00:03:38.866Z,99106.17
2022-11-16T00:06:41.796Z,99103.14
2022-11-16T00:09:44.755Z,99100.21
2022-11-16T00:12:47.723Z,99097.88
2022-11-16T00:15:56.071Z,99098.25
2022-11-16T00:19:01.756Z,99095.74
2022-11-16T00:22:04.819Z,99093.17
2022-11-16T00:25:08.148Z,99094.48
2022-11-16T00:28:11.801Z,99095.41
2022-11-16T00:31:14.689Z,99098.45
2022-11-16T00:34:18.616Z,99094.85
2022-11-16T00:37:21.543Z,99091.80
2022-11-16T00:40:24.533Z,99090.16
2022-11-16T00:43:27.571Z,99083.02
2022-11-16T00:46:30.482Z,99080.05
2022-11-16T00:49:33.418Z,99080.65
2022-11-16T00:52:36.414Z,99079.52
2022-11-16T00:55:39.431Z,99085.80
2022-11-16T00:58:42.366Z,99086.86
2022-11-16T01:01:45.329Z,99089.11
2022-11-16T01:04:48.282Z,99085.71
2022-11-16T01:07:51.623Z,99084.64
2022-11-16T01:10:55.724Z,99076.61
2022-11-16T01:13:59.082Z,99069.86
2022-11-16T01:17:02.080Z,99065.50
2022-11-16T01:20:07.838Z,99064.61
2022-11-16T01:23:11.260Z,99064.00
2022-11-16T01:26:14.162Z,99067.21
2022-11-16T01:29:17.170Z,99064.89
2022-11-16T01:32:20.418Z,99063.33
2022-11-16T01:35:23.328Z,99063.13
2022-11-16T01:38:29.778Z,99065.67
2022-11-16T01:41:33.497Z,99065.52
2022-11-16T01:44:36.391Z,99065.16
2022-11-16T01:47:39.312Z,99064.02
2022-11-16T01:50:43.913Z,99059.14
2022-11-16T01:53:46.801Z,99056.55
2022-11-16T01:56:52.886Z,99055.57
2022-11-16T01:59:59.318Z,99059.13
2022-11-16T02:03:02.235Z,99058.89
2022-11-16T02:06:32.395Z,99053.58
2022-11-16T02:09:55.220Z,99049.34
2022-11-16T02:13:12.755Z,99044.33
2022-11-16T02:16:24.712Z,99037.61
2022-11-16T02:19:58.875Z,99031.55
2022-11-16T02:23:07.886Z,99027.81
2022-11-16T02:26:20.123Z,99022.82
2022-11-16T02:29:42.984Z,99021.61
2022-11-16T02:33:09.026Z,99017.38
2022-11-16T02:36:17.563Z,99009.48
2022-11-16T02:39:24.762Z,99004.66
2022-11-16T02:42:38.262Z,98997.47
2022-11-16T02:45:46.443Z,98995.53
2022-11-16T02:48:54.586Z,98985.30
2022-11-16T02:51:59.047Z,98980.85
2022-11-16T02:55:01.773Z,98979.11
2022-11-16T02:58:09.658Z,98973.79
2022-11-16T03:01:26.203Z,98971.45
2022-11-16T03:04:47.426Z,98962.73
2022-11-16T03:07:59.506Z,98960.34
2022-11-16T03:11:27.534Z,98956.14
2022-11-16T03:14:44.312Z,98957.42
2022-11-16T03:17:50.040Z,98954.23
2022-11-16T03:21:04.062Z,98959.53
2022-11-16T03:24:08.189Z,98961.77
2022-11-16T03:27:27.022Z,98964.02
2022-11-16T03:30:34.055Z,98968.50
2022-11-16T03:33:45.294Z,98968.00
2022-11-16T03:36:50.473Z,98964.85
2022-11-16T03:39:55.070Z,98963.59
2022-11-16T03:43:00.910Z,98958.61
2022-11-16T03:46:04.973Z,98956.77
2022-11-16T03:49:07.830Z,98955.53
2022-11-16T03:52:10.669Z,98959.02
2022-11-16T03:55:13.506Z,98952.69
2022-11-16T03:58:18.764Z,98951.45
2022-11-16T04:01:23.227Z,98950.30
2022-11-16T04:04:44.680Z,98945.73
2022-11-16T04:08:07.804Z,98948.83
2022-11-16T04:11:32.311Z,98941.38
2022-11-16T04:14:53.853Z,98939.77
2022-11-16T04:18:15.494Z,98941.20
2022-11-16T04:21:56.623Z,98940.20
2022-11-16T04:25:09.086Z,98939.56
2022-11-16T04:28:14.839Z,98939.53
2022-11-16T04:31:36.572Z,98938.29
2022-11-16T04:34:58.154Z,98938.79
2022-11-16T04:38:01.301Z,98937.99
2022-11-16T04:41:04.085Z,98930.60
2022-11-16T04:44:06.855Z,98924.72
2022-11-16T04:47:09.775Z,98922.77
2022-11-16T04:50:12.624Z,98925.58
2022-11-16T04:53:15.986Z,98930.18
2022-11-16T04:56:18.777Z,98928.70
2022-11-16T04:59:21.608Z,98928.76
2022-11-16T05:02:24.358Z,98931.73
2022-11-16T05:05:27.077Z,98922.70
2022-11-16T05:08:29.876Z,98917.35
2022-11-16T05:11:32.892Z,98914.28
2022-11-16T05:14:35.798Z,98919.33
2022-11-16T05:17:38.675Z,98919.33
2022-11-16T05:21:16.947Z,98915.16
2022-11-16T05:24:35.885Z,98905.79
2022-11-16T05:27:38.684Z,98910.27
2022-11-16T05:30:45.693Z,98915.80
2022-11-16T05:33:48.424Z,98925.29
2022-11-16T05:36:51.742Z,98927.43
2022-11-16T05:39:55.061Z,98919.40
2022-11-16T05:42:58.270Z,98914.58
2022-11-16T05:46:01.093Z,98916.15
2022-11-16T05:49:04.036Z,98910.39
2022-11-16T05:52:06.814Z,98907.23
2022-11-16T05:55:10.032Z,98903.53
2022-11-16T05:58:12.910Z,98903.70
2022-11-16T06:01:15.754Z,98906.55
2022-11-16T06:04:24.491Z,98907.75
2022-11-16T06:07:27.907Z,98916.42
2022-11-16T06:10:30.897Z,98920.56
2022-11-16T06:13:33.884Z,98919.27
2022-11-16T06:16:36.726Z,98916.98
2022-11-16T06:19:39.460Z,98916.40
2022-11-16T06:22:42.173Z,98917.80
2022-11-16T06:25:45.719Z,98916.37
2022-11-16T06:28:48.455Z,98914.41
2022-11-16T06:31:51.200Z,98916.01
2022-11-16T06:34:54.856Z,98921.89
2022-11-16T06:37:58.082Z,98918.23
2022-11-16T06:41:01.646Z,98917.27
2022-11-16T06:44:04.397Z,98920.44
2022-11-16T06:47:07.124Z,98917.46
2022-11-16T06:50:10.313Z,98920.04
2022-11-16T06:53:13.064Z,98921.94
2022-11-16T06:56:16.588Z,98922.08
2022-11-16T06:59:19.334Z,98922.47
2022-11-16T07:02:22.990Z,98921.57
2022-11-16T07:05:25.755Z,98916.69
2022-11-16T07:08:28.508Z,98918.79
2022-11-16T07:11:31.212Z,98918.77
2022-11-16T07:14:33.963Z,98922.61
2022-11-16T07:17:36.960Z,98919.17
2022-11-16T07:20:39.688Z,98923.91
2022-11-16T07:23:43.035Z,98923.20
2022-11-16T07:26:45.869Z,98920.80
2022-11-16T07:29:48.612Z,98926.56
2022-11-16T07:32:51.526Z,98929.76
2022-11-16T07:35:54.344Z,98931.55
2022-11-16T07:38:57.391Z,98933.85
2022-11-16T07:42:00.401Z,98940.02
2022-11-16T07:45:03.384Z,98944.59
2022-11-16T07:48:09.327Z,98941.16
2022-11-16T07:51:22.239Z,98942.63
2022-11-16T07:54:25.062Z,98941.58
2022-11-16T07:57:27.946Z,98944.09
2022-11-16T08:00:38.231Z,98942.14
2022-11-16T08:03:43.768Z,98943.86
2022-11-16T08:06:47.189Z,98947.08
2022-11-16T08:09:50.197Z,98945.67
2022-11-16T08:12:55.013Z,98942.52
2022-11-16T08:16:02.528Z,98947.30
2022-11-16T08:19:05.448Z,98954.58
2022-11-16T08:22:09.156Z,98946.70
2022-11-16T08:25:12.422Z,98952.95
2022-11-16T08:28:15.235Z,98958.80
2022-11-16T08:31:28.768Z,98955.41
2022-11-16T08:34:31.740Z,98958.14
2022-11-16T08:37:34.681Z,98956.41
2022-11-16T08:40:38.635Z,98955.62
2022-11-16T08:43:47.900Z,98958.83
2022-11-16T08:46:50.703Z,98953.73
2022-11-16T08:49:53.560Z,98958.03
2022-11-16T08:53:00.823Z,98957.64
2022-11-16T08:56:09.280Z,98955.01
2022-11-16T08:59:12.683Z,98964.45
2022-11-16T09:02:15.707Z,98966.34
2022-11-16T09:05:18.768Z,98963.40
2022-11-16T09:08:21.713Z,98966.16
2022-11-16T09:11:25.855Z,98963.77
2022-11-16T09:14:30.821Z,98968.56
2022-11-16T09:17:33.950Z,98968.45
2022-11-16T09:20:36.964Z,98966.15
2022-11-16T09:23:39.823Z,98968.73
2022-11-16T09:26:42.685Z,98971.77
2022-11-16T09:29:45.515Z,98978.08
2022-11-16T09:32:48.350Z,98974.70
2022-11-16T09:35:51.194Z,98970.27
2022-11-16T09:39:23.848Z,98968.49
2022-11-16T09:42:48.742Z,98962.46
2022-11-16T09:46:06.771Z,98958.16
2022-11-16T09:49:17.493Z,98952.98
2022-11-16T09:52:44.230Z,98949.01
2022-11-16T09:55:51.214Z,98952.11
2022-11-16T09:59:13.507Z,98953.27
2022-11-16T10:02:25.394Z,98947.48
2022-11-16T10:05:35.256Z,98941.17
2022-11-16T10:08:52.513Z,98936.02
2022-11-16T10:12:34.546Z,98933.10
2022-11-16T10:15:56.169Z,98930.52
2022-11-16T10:19:15.006Z,98925.13
2022-11-16T10:22:39.108Z,98922.52
2022-11-16T10:26:22.347Z,98918.07
2022-11-16T10:29:31.427Z,98916.80
2022-11-16T10:32:45.666Z,98916.82
2022-11-16T10:35:53.760Z,98915.41
2022-11-16T10:38:57.426Z,98913.33
2022-11-16T10:42:07.705Z,98911.34
2022-11-16T10:45:11.367Z,98907.09
2022-11-16T10:48:37.230Z,98906.01
2022-11-16T10:51:41.021Z,98902.52
2022-11-16T10:54:45.975Z,98896.68
2022-11-16T10:58:04.245Z,98893.06
2022-11-16T11:01:10.952Z,98888.41
2022-11-16T11:04:24.737Z,98882.93
2022-11-16T11:07:35.467Z,98881.98
2022-11-16T11:10:41.370Z,98884.58
2022-11-16T11:13:44.905Z,98881.48
2022-11-16T11:16:52.988Z,98874.43
2022-11-16T11:20:25.892Z,98868.78
2022-11-16T11:23:45.799Z,98858.88
2022-11-16T11:26:55.837Z,98854.48
2022-11-16T11:29:59.583Z,98844.66
2022-11-16T11:33:11.520Z,98845.85
2022-11-16T11:36:21.375Z,98845.46
2022-11-16T11:39:24.203Z,98841.98
2022-11-16T11:42:28.161Z,98844.29
2022-11-16T11:45:44.982Z,98843.98
2022-11-16T11:49:02.011Z,98843.02
2022-11-16T11:52:21.940Z,98845.13
2022-11-16T11:55:24.977Z,98842.23
2022-11-16T11:58:37.559Z,98838.35
2022-11-16T12:02:16.139Z,98831.45
2022-11-16T12:05:45.014Z,98829.73
2022-11-16T12:09:14.774Z,98826.45
2022-11-16T12:12:49.022Z,98828.37
2022-11-16T12:16:18.389Z,98822.52
2022-11-16T12:19:21.360Z,98817.96
2022-11-16T12:22:59.670Z,98821.41
2022-11-16T12:26:20.973Z,98829.50
2022-11-16T12:30:04.241Z,98831.35
2022-11-16T12:33:31.545Z,98827.36
2022-11-16T12:36:54.544Z,98830.92
2022-11-16T12:40:35.414Z,98827.42
2022-11-16T12:44:03.188Z,98831.52
2022-11-16T12:47:22.922Z,98833.02
2022-11-16T12:50:41.393Z,98838.23
2022-11-16T12:54:16.718Z,98840.11
2022-11-16T12:57:31.953Z,98833.86
2022-11-16T13:00:46.979Z,98841.73
2022-11-16T13:03:55.195Z,98849.76
2022-11-16T13:07:11.226Z,98849.16
2022-11-16T13:10:14.328Z,98847.95
2022-11-16T13:13:41.438Z,98850.32
2022-11-16T13:16:46.526Z,98843.75
2022-11-16T13:20:15.498Z,98840.29
2022-11-16T13:24:00.660Z,98838.69
2022-11-16T13:27:22.505Z,98840.08
2022-11-16T13:30:46.815Z,98836.05
2022-11-16T13:33:55.687Z,98840.11
2022-11-16T13:36:58.642Z,98833.98
2022-11-16T13:40:01.492Z,98831.27
2022-11-16T13:43:22.805Z,98830.09
2022-11-16T13:46:55.158Z,98826.99
2022-11-16T13:50:20.283Z,98829.63
2022-11-16T13:54:43.118Z,98828.66
2022-11-16T13:57:02.817Z,98827.91
2022-11-16T14:00:11.595Z,98827.46
2022-11-16T14:03:20.499Z,98821.25
2022-11-16T14:06:23.317Z,98814.10
2022-11-16T14:09:43.778Z,98816.38
2022-11-16T14:12:54.473Z,98812.90
2022-11-16T14:16:17.295Z,98810.21
2022-11-16T14:19:49.324Z,98808.77
2022-11-16T14:23:16.575Z,98806.29
2022-11-16T14:26:28.087Z,98805.34
2022-11-16T14:29:34.408Z,98805.20
2022-11-16T14:32:45.467Z,98804.90
2022-11-16T14:35:52.694Z,98803.92
2022-11-16T14:38:55.730Z,98802.86
2022-11-16T14:42:15.323Z,98800.05
2022-11-16T14:45:30.832Z,98800.55
2022-11-16T14:48:35.329Z,98799.27
2022-11-16T14:51:45.289Z,98798.06
2022-11-16T14:54:53.854Z,98798.80
2022-11-16T14:58:18.261Z,98795.49
2022-11-16T15:02:13.605Z,98797.95
2022-11-16T15:05:20.387Z,98798.98
2022-11-16T15:08:46.333Z,98801.81
2022-11-16T15:12:09.939Z,98804.17
2022-11-16T15:15:19.688Z,98800.89
2022-11-16T15:18:23.370Z,98802.40
2022-11-16T15:21:27.081Z,98800.92
2022-11-16T15:24:34.476Z,98801.19
2022-11-16T15:27:42.763Z,98804.95
2022-11-16T15:30:50.976Z,98803.50
2022-11-16T15:33:54.326Z,98800.38
2022-11-16T15:36:57.358Z,98802.89
2022-11-16T15:40:05.956Z,98798.80
2022-11-16T15:43:12.366Z,98805.11
2022-11-16T15:46:15.819Z,98807.63
2022-11-16T15:49:29.179Z,98803.63
2022-11-16T15:57:08.059Z,98809.46
2022-11-16T16:00:23.088Z,98805.77
2022-11-16T16:03:29.366Z,98805.04
2022-11-16T16:06:55.733Z,98805.92
2022-11-16T16:10:32.352Z,98812.23
2022-11-16T16:13:45.135Z,98813.73
2022-11-16T16:16:51.855Z,98813.47
2022-11-16T16:20:04.224Z,98806.79
2022-11-16T16:23:15.455Z,98814.31
2022-11-16T16:26:23.869Z,98814.69
2022-11-16T16:29:29.029Z,98808.49
2022-11-16T16:32:35.222Z,98809.58
2022-11-16T16:35:40.727Z,98809.67
2022-11-16T16:38:48.253Z,98807.89
2022-11-16T16:41:54.600Z,98811.14
2022-11-16T16:45:01.231Z,98808.05
2022-11-16T16:48:05.200Z,98813.14
2022-11-16T16:51:11.821Z,98807.23
2022-11-16T16:54:16.016Z,98811.00
2022-11-16T16:57:25.963Z,98801.63
2022-11-16T17:00:30.999Z,98809.68
2022-11-16T17:03:34.323Z,98804.08
2022-11-16T17:06:39.268Z,98802.66
2022-11-16T17:09:45.440Z,98808.66
2022-11-16T17:12:48.795Z,98812.54
2022-11-16T17:15:51.796Z,98812.48
2022-11-16T17:18:56.704Z,98804.11
2022-11-16T17:22:00.185Z,98816.20
2022-11-16T17:25:18.587Z,98815.60
2022-11-16T17:28:26.113Z,98819.34
2022-11-16T17:31:29.424Z,98813.87
2022-11-16T17:34:32.499Z,98814.98
2022-11-16T17:37:35.741Z,98811.04
2022-11-16T17:40:41.981Z,98802.66
2022-11-16T17:43:46.812Z,98814.80
2022-11-16T17:47:08.803Z,98811.30
2022-11-16T17:50:12.395Z,98813.84
2022-11-16T17:53:16.510Z,98817.65
2022-11-16T17:56:25.828Z,98817.48
2022-11-16T17:59:30.002Z,98816.95
2022-11-16T18:02:40.971Z,98813.52
2022-11-16T18:05:46.688Z,98805.73
2022-11-16T18:08:51.360Z,98816.38
2022-11-16T18:11:56.410Z,98815.84
2022-11-16T18:15:26.233Z,98813.16
2022-11-16T18:18:23.850Z,98810.48
2022-11-16T18:21:27.368Z,98798.20
2022-11-16T18:24:32.293Z,98812.96
2022-11-16T18:27:35.286Z,98815.70
2022-11-16T18:30:39.796Z,98814.19
2022-11-16T18:33:44.547Z,98807.61
2022-11-16T18:36:49.385Z,98802.77
2022-11-16T18:39:52.606Z,98810.62
2022-11-16T18:42:56.235Z,98804.06
2022-11-16T18:45:59.167Z,98803.63
2022-11-16T18:49:08.157Z,98806.55
2022-11-16T18:52:13.312Z,98796.63
2022-11-16T18:55:17.657Z,98799.43
2022-11-16T18:58:43.626Z,98806.61
2022-11-16T19:01:47.200Z,98811.71
2022-11-16T19:04:50.869Z,98811.88
2022-11-16T19:07:54.000Z,98813.42
2022-11-16T19:10:57.635Z,98810.67
2022-11-16T19:14:30.691Z,98812.56
2022-11-16T19:17:43.704Z,98793.45
2022-11-16T19:21:13.729Z,98813.66
2022-11-16T19:24:32.762Z,98811.93
2022-11-16T19:27:37.608Z,98805.22
2022-11-16T19:30:42.415Z,98806.46
2022-11-16T19:33:49.722Z,98810.28
2022-11-16T19:36:56.311Z,98804.13
2022-11-16T19:39:59.296Z,98811.04
2022-11-16T19:43:02.825Z,98812.29
2022-11-16T19:46:07.342Z,98817.59
2022-11-16T19:49:19.552Z,98806.35
2022-11-16T19:52:26.517Z,98820.95
2022-11-16T19:55:33.776Z,98817.72
2022-11-16T19:58:43.912Z,98819.56
2022-11-16T20:01:52.154Z,98818.95
2022-11-16T20:04:57.254Z,98818.94
2022-11-16T20:08:00.817Z,98820.69
2022-11-16T20:11:32.965Z,98821.64
2022-11-16T20:14:39.550Z,98814.83
2022-11-16T20:17:42.707Z,98806.38
2022-11-16T20:20:46.663Z,98809.32
2022-11-16T20:23:51.937Z,98809.08
2022-11-16T20:26:57.170Z,98807.73
2022-11-16T20:30:04.944Z,98810.11
2022-11-16T20:36:36.296Z,98809.69
2022-11-16T20:39:49.033Z,98804.40
2022-11-16T20:42:59.431Z,98809.36
2022-11-16T20:46:05.925Z,98807.98
2022-11-16T20:49:35.570Z,98823.30
2022-11-16T20:52:51.400Z,98832.04
2022-11-16T20:55:58.638Z,98830.52
2022-11-16T20:59:05.381Z,98835.09
2022-11-16T21:02:13.376Z,98826.66
2022-11-16T21:05:20.383Z,98814.27
2022-11-16T21:08:30.608Z,98827.95
2022-11-16T21:11:56.315Z,98829.99
2022-11-16T21:14:59.509Z,98828.65
2022-11-16T21:18:07.535Z,98827.54
2022-11-16T21:21:20.486Z,98829.11
2022-11-16T21:24:25.056Z,98829.48
2022-11-16T21:27:30.835Z,98830.29
2022-11-16T21:30:36.308Z,98828.73
2022-11-16T21:33:39.686Z,98829.38
2022-11-16T21:36:52.421Z,98832.10
2022-11-16T21:40:05.852Z,98824.95
2022-11-16T21:43:09.346Z,98819.73
2022-11-16T21:46:18.292Z,98829.52
2022-11-16T21:49:21.252Z,98829.56
2022-11-16T21:52:24.197Z,98834.90
2022-11-16T21:55:29.800Z,98837.76
2022-11-16T21:58:34.163Z,98843.94
2022-11-16T22:01:57.740Z,98839.99
2022-11-16T22:05:19.586Z,98839.35
2022-11-16T22:08:22.371Z,98838.90
2022-11-16T22:11:27.617Z,98840.07
2022-11-16T22:14:34.640Z,98841.63
2022-11-16T22:17:45.443Z,98845.61
2022-11-16T22:20:55.188Z,98845.11
2022-11-16T22:24:03.885Z,98846.55
2022-11-16T22:27:10.225Z,98841.08
2022-11-16T22:30:13.303Z,98836.21
2022-11-16T22:33:19.281Z,98840.30
2022-11-16T22:36:27.392Z,98843.45
2022-11-16T22:39:37.847Z,98837.61
2022-11-16T22:42:42.283Z,98837.54
2022-11-16T22:45:45.586Z,98842.14
2022-11-16T22:48:51.645Z,98843.73
2022-11-16T22:51:54.808Z,98845.26
2022-11-16T22:54:57.804Z,98849.23
2022-11-16T22:58:03.257Z,98851.45
2022-11-16T23:01:08.496Z,98848.89
2022-11-16T23:04:25.750Z,98853.60
2022-11-16T23:07:29.629Z,98848.06
2022-11-16T23:10:52.787Z,98849.73
2022-11-16T23:14:15.298Z,98843.98
2022-11-16T23:17:21.667Z,98839.19
2022-11-16T23:20:43.316Z,98833.35
2022-11-16T23:24:06.909Z,98829.16
2022-11-16T23:27:29.051Z,98827.92
2022-11-16T23:30:32.080Z,98830.52
2022-11-16T23:33:43.990Z,98830.22
2022-11-16T23:36:46.915Z,98833.27
2022-11-16T23:39:50.056Z,98831.50
2022-11-16T23:43:12.803Z,98828.36
2022-11-16T23:46:15.534Z,98824.14
2022-11-16T23:49:18.865Z,98819.67
2022-11-16T23:52:21.724Z,98822.50
2022-11-16T23:55:24.859Z,98821.61
2022-11-16T23:58:27.614Z,98816.23
